createdAt,value
2018-09-23T00:01:59.936Z,7.61
2018-09-23T00:07:50.953Z,7.47
2018-09-23T00:13:45.876Z,6.93
2018-09-23T00:19:40.875Z,7.72
2018-09-23T00:25:35.842Z,7
2018-09-23T00:31:30.866Z,6.7
2018-09-23T00:37:25.860Z,7.43
2018-09-23T00:43:20.865Z,7.03
2018-09-23T00:49:18.477Z,7.07
2018-09-23T00:55:10.865Z,7.1
2018-09-23T01:01:09.951Z,7.41
2018-09-23T01:07:00.881Z,7.13
2018-09-23T01:12:55.890Z,7.09
2018-09-23T01:18:53.233Z,6.99
2018-09-23T01:24:45.915Z,7.05
2018-09-23T01:30:40.916Z,7.07
2018-09-23T01:36:35.911Z,7.12
2018-09-23T01:42:30.914Z,6.4
2018-09-23T01:48:25.943Z,7.06
2018-09-23T01:54:20.935Z,7.34
2018-09-23T02:00:15.922Z,5.92
2018-09-23T02:06:10.930Z,7.39
2018-09-23T02:12:05.945Z,6.31
2018-09-23T02:18:00.947Z,6.93
2018-09-23T02:23:56.023Z,7.79
2018-09-23T02:29:51.030Z,7.01
2018-09-23T02:35:45.968Z,6.76
2018-09-23T02:41:41.007Z,7.04
2018-09-23T02:47:35.969Z,7.46
2018-09-23T02:53:30.986Z,7.44
2018-09-23T02:59:25.977Z,6.91
2018-09-23T03:05:20.997Z,7.35
2018-09-23T03:11:16.050Z,6.72
2018-09-23T03:17:11.043Z,7.13
2018-09-23T03:23:06.038Z,6.71
2018-09-23T03:29:01.031Z,6.74
2018-09-23T03:34:56.085Z,7.02
2018-09-23T03:40:51.035Z,7.16
2018-09-23T03:46:46.148Z,6.63
2018-09-23T03:52:41.056Z,7.31
2018-09-23T03:58:36.037Z,7.83
2018-09-23T04:04:31.042Z,7.22
2018-09-23T04:10:26.053Z,6.87
2018-09-23T04:16:21.052Z,7.36
2018-09-23T04:22:16.131Z,7.13
2018-09-23T04:28:11.073Z,6.82
2018-09-23T04:34:06.077Z,7.13
2018-09-23T04:40:01.088Z,7.56
2018-09-23T04:45:56.094Z,7.01
2018-09-23T04:51:51.115Z,7.47
2018-09-23T04:57:46.103Z,6.77
2018-09-23T05:03:41.102Z,7.26
2018-09-23T05:09:36.128Z,7.63
2018-09-23T05:15:31.185Z,8.93
2018-09-23T05:21:26.143Z,12.52
2018-09-23T05:27:21.132Z,14.46
2018-09-23T05:33:16.179Z,9.34
2018-09-23T05:39:11.148Z,7
2018-09-23T05:45:06.156Z,13.72
2018-09-23T05:51:01.147Z,9.43
2018-09-23T05:56:56.417Z,7.82
2018-09-23T06:02:51.187Z,7.65
2018-09-23T06:08:46.216Z,8.24
2018-09-23T06:14:41.190Z,7.78
2018-09-23T06:20:36.208Z,7.86
2018-09-23T06:26:31.183Z,7.74
2018-09-23T06:32:26.183Z,9.35
2018-09-23T06:38:21.288Z,10.48
2018-09-23T06:44:16.259Z,10.09
2018-09-23T06:50:11.218Z,10.05
2018-09-23T06:56:06.308Z,9.14
2018-09-23T07:02:05.305Z,9.27
2018-09-23T07:07:56.266Z,10.63
2018-09-23T07:13:51.229Z,11.02
2018-09-23T07:19:46.233Z,12.05
2018-09-23T07:25:41.277Z,12.83
2018-09-23T07:31:36.262Z,10.94
2018-09-23T07:37:31.269Z,11.83
2018-09-23T07:43:26.261Z,12.03
2018-09-23T07:49:21.355Z,14.37
2018-09-23T07:55:16.334Z,11.48
2018-09-23T08:01:13.123Z,11.61
2018-09-23T08:07:06.348Z,12.32
2018-09-23T08:13:01.549Z,12.53
2018-09-23T08:18:56.315Z,12.62
2018-09-23T08:24:51.294Z,12.34
2018-09-23T08:30:46.348Z,12.64
2018-09-23T08:36:41.310Z,11.04
2018-09-23T08:42:36.310Z,10.68
2018-09-23T08:48:31.347Z,11.48
2018-09-23T08:54:26.338Z,14.33
2018-09-23T09:00:21.357Z,10.34
2018-09-23T09:06:16.352Z,10.12
2018-09-23T09:12:11.379Z,8.59
2018-09-23T09:18:06.414Z,8.94
2018-09-23T09:24:01.370Z,8.32
2018-09-23T09:29:56.363Z,9.19
2018-09-23T09:35:51.423Z,9.11
2018-09-23T09:41:46.386Z,9.43
2018-09-23T09:47:41.445Z,9.58
2018-09-23T09:53:36.408Z,9.68
2018-09-23T09:59:31.401Z,8.76
2018-09-23T10:05:26.409Z,8.88
2018-09-23T10:11:21.499Z,8.83
2018-09-23T10:17:16.430Z,9.77
2018-09-23T10:23:11.595Z,9.23
2018-09-23T10:29:06.434Z,8.43
2018-09-23T10:35:01.470Z,7.5
2018-09-23T10:40:56.465Z,8.18
2018-09-23T10:46:51.459Z,7.94
2018-09-23T10:52:46.456Z,7.5
2018-09-23T10:58:41.464Z,7.94
2018-09-23T11:04:36.464Z,6.18
2018-09-23T11:10:31.574Z,7.33
2018-09-23T11:16:26.555Z,6.82
2018-09-23T11:22:21.491Z,7.08
2018-09-23T11:28:16.479Z,6.64
2018-09-23T11:34:11.471Z,6.39
2018-09-23T11:40:06.619Z,7.04
2018-09-23T11:46:01.551Z,5.96
2018-09-23T11:51:56.549Z,6.28
2018-09-23T11:57:51.532Z,6
2018-09-23T12:03:46.574Z,6.81
2018-09-23T12:09:41.568Z,5.95
2018-09-23T12:15:36.649Z,5.71
2018-09-23T12:21:31.541Z,4.75
2018-09-23T12:27:26.543Z,5.52
2018-09-23T12:33:21.684Z,4.21
2018-09-23T12:39:16.589Z,4.36
2018-09-23T12:45:11.628Z,4.41
2018-09-23T12:51:06.572Z,5.06
2018-09-23T12:57:01.589Z,4.31
2018-09-23T13:02:56.642Z,4.01
2018-09-23T13:08:51.576Z,4.11
2018-09-23T13:14:46.601Z,4.11
2018-09-23T13:20:41.598Z,3.9
2018-09-23T13:26:36.613Z,4.7
2018-09-23T13:32:31.641Z,4.62
2018-09-23T13:38:26.631Z,4.12
2018-09-23T13:44:21.629Z,4.29
2018-09-23T13:50:16.669Z,4.41
2018-09-23T13:56:11.666Z,4.74
2018-09-23T14:02:06.653Z,5.15
2018-09-23T14:08:01.655Z,4.5
2018-09-23T14:13:56.648Z,3.97
2018-09-23T14:19:51.653Z,4.55
2018-09-23T14:25:46.707Z,3.97
2018-09-23T14:31:41.671Z,4.36
2018-09-23T14:37:36.681Z,4.25
2018-09-23T14:43:31.758Z,3.89
2018-09-23T14:49:26.712Z,3.8
2018-09-23T14:55:21.702Z,3.85
2018-09-23T15:01:16.743Z,4.27
2018-09-23T15:07:11.727Z,3.95
2018-09-23T15:13:06.760Z,3.77
2018-09-23T15:19:01.723Z,3.47
2018-09-23T15:24:56.744Z,3.97
2018-09-23T15:30:53.416Z,4.09
2018-09-23T15:36:46.750Z,4.23
2018-09-23T15:42:41.738Z,4.17
2018-09-23T15:48:36.768Z,4.66
2018-09-23T15:54:31.800Z,4.4
2018-09-23T16:00:30.874Z,4.39
2018-09-23T16:06:21.778Z,4.71
2018-09-23T16:12:16.782Z,4.24
2018-09-23T16:18:11.853Z,5.3
2018-09-23T16:24:06.811Z,5.7
2018-09-23T16:30:01.836Z,6.17
2018-09-23T16:35:56.827Z,5.39
2018-09-23T16:41:51.802Z,5.97
2018-09-23T16:47:46.882Z,5.54
2018-09-23T16:53:41.828Z,6.03
2018-09-23T16:59:36.842Z,6.21
2018-09-23T17:05:31.847Z,5.99
2018-09-23T17:11:26.839Z,5.29
2018-09-23T17:17:21.899Z,5.84
2018-09-23T17:23:16.855Z,5.16
2018-09-23T17:29:11.856Z,6.22
2018-09-23T17:35:06.931Z,6.33
2018-09-23T17:41:02.217Z,5.1
2018-09-23T17:46:56.853Z,5.56
2018-09-23T17:52:51.886Z,5.47
2018-09-23T17:58:46.908Z,6.06
2018-09-23T18:04:41.898Z,5.62
2018-09-23T18:10:36.880Z,5.38
2018-09-23T18:16:31.922Z,5.8
2018-09-23T18:22:26.898Z,4.59
2018-09-23T18:28:21.934Z,5.87
2018-09-23T18:34:16.929Z,5.27
2018-09-23T18:40:11.958Z,5.06
2018-09-23T18:46:06.951Z,4.74
2018-09-23T18:52:01.978Z,5.47
2018-09-23T18:57:56.946Z,5.43
2018-09-23T19:03:51.994Z,4.98
2018-09-23T19:09:46.948Z,5.61
2018-09-23T19:15:41.957Z,5.46
2018-09-23T19:21:36.968Z,6.31
2018-09-23T19:27:31.985Z,6.14
2018-09-23T19:33:26.991Z,5.43
2018-09-23T19:39:21.990Z,5.6
2018-09-23T19:45:17.034Z,5.41
2018-09-23T19:51:11.983Z,6.07
2018-09-23T19:57:07.043Z,6.17
2018-09-23T20:03:01.988Z,6.15
2018-09-23T20:08:57.017Z,5.92
2018-09-23T20:14:52.014Z,6.29
2018-09-23T20:20:47.012Z,5.56
2018-09-23T20:26:42.035Z,5.51
2018-09-23T20:32:37.058Z,5.39
2018-09-23T20:38:32.121Z,5.73
2018-09-23T20:44:27.076Z,5.61
2018-09-23T20:50:22.046Z,5.76
2018-09-23T20:56:17.095Z,6.31
2018-09-23T21:02:12.189Z,6.83
2018-09-23T21:08:07.109Z,5.75
2018-09-23T21:14:02.173Z,6.2
2018-09-23T21:19:57.075Z,5.4
2018-09-23T21:25:52.091Z,6.1
2018-09-23T21:31:47.118Z,5.47
2018-09-23T21:37:42.176Z,5.63
2018-09-23T21:43:37.095Z,5.57
2018-09-23T21:49:32.141Z,5.96
2018-09-23T21:55:27.100Z,5.39
2018-09-23T22:01:22.156Z,4.99
2018-09-23T22:07:17.126Z,5.94
2018-09-23T22:13:12.129Z,5.28
2018-09-23T22:19:07.153Z,5.36
2018-09-23T22:25:02.162Z,5.46
2018-09-23T22:30:57.233Z,5.51
2018-09-23T22:36:52.172Z,5.33
2018-09-23T22:42:47.159Z,5.2
2018-09-23T22:48:42.173Z,4.82
2018-09-23T22:54:37.168Z,4.67
2018-09-23T23:00:32.168Z,4.52
2018-09-23T23:06:27.188Z,4.73
2018-09-23T23:12:22.176Z,4.37
2018-09-23T23:18:17.218Z,4.71
2018-09-23T23:24:12.217Z,4.6
2018-09-23T23:30:07.285Z,4.5
2018-09-23T23:36:02.222Z,4.29
2018-09-23T23:41:57.230Z,5.19
2018-09-23T23:47:52.224Z,5.28
2018-09-23T23:53:47.244Z,4.03
2018-09-23T23:59:42.345Z,4.21
